Time;durP1;ratioP1;P1;durP2;ratioP2;P2;SDS_P1;SDS_P2;PMS_P1;PMS_P2;Temp;Humidity;BMP_temperature;BMP_pressure;BME280_temperature;BME280_humidity;BME280_pressure;Samples;Min_cycle;Max_cycle;Signal;HPM_P1;HPM_P2
2023/04/05 00:01:07;;;;;;;7.88;4.45;;;2.10;99.90;;;;;;5015914;28;20026;-79
2023/04/05 00:03:34;;;;;;;13.77;7.10;;;2.30;99.90;;;;;;5006099;28;20561;-79
2023/04/05 00:06:01;;;;;;;9.98;5.22;;;2.00;99.90;;;;;;5009138;28;20029;-78
2023/04/05 00:08:27;;;;;;;14.63;6.43;;;1.80;99.90;;;;;;5002777;28;20088;-79
2023/04/05 00:10:52;;;;;;;12.90;6.90;;;1.60;99.90;;;;;;4997522;28;20029;-79
2023/04/05 00:13:18;;;;;;;11.32;7.10;;;2.10;99.90;;;;;;5019707;28;20440;-79
2023/04/05 00:15:46;;;;;;;14.07;7.35;;;1.80;99.90;;;;;;5015626;28;20386;-79
2023/04/05 00:18:20;;;;;;;14.57;7.30;;;1.60;99.90;;;;;;5007642;28;20378;-79
2023/04/05 00:20:47;;;;;;;15.32;6.72;;;1.70;99.90;;;;;;5002399;28;20042;-79
2023/04/05 00:23:13;;;;;;;9.25;6.22;;;1.40;99.90;;;;;;4988109;28;20029;-79
2023/04/05 00:25:39;;;;;;;14.43;6.45;;;1.00;99.90;;;;;;5013862;28;20457;-80
2023/04/05 00:28:04;;;;;;;12.60;6.95;;;1.20;99.90;;;;;;5005301;28;20044;-79
2023/04/05 00:30:30;;;;;;;12.43;6.82;;;1.00;99.90;;;;;;4999497;28;20034;-79
2023/04/05 00:32:56;;;;;;;13.20;6.53;;;1.30;99.90;;;;;;5015746;28;20052;-80
2023/04/05 00:35:21;;;;;;;8.20;5.13;;;1.20;99.90;;;;;;5000368;28;20783;-79
2023/04/05 00:37:47;;;;;;;12.55;5.97;;;1.30;99.90;;;;;;5030778;28;20451;-80
2023/04/05 00:40:12;;;;;;;14.60;7.57;;;1.10;99.90;;;;;;5000911;28;20042;-81
2023/04/05 00:42:38;;;;;;;14.15;8.23;;;1.20;99.90;;;;;;5005779;28;20033;-80
2023/04/05 00:45:04;;;;;;;17.45;8.70;;;1.20;99.90;;;;;;5030793;28;20382;-80
2023/04/05 00:47:30;;;;;;;19.42;8.95;;;1.10;99.90;;;;;;5016716;28;20033;-79
2023/04/05 00:49:55;;;;;;;14.63;8.48;;;1.00;99.90;;;;;;5016211;28;20037;-79
2023/04/05 00:52:22;;;;;;;15.85;9.40;;;1.10;99.90;;;;;;5005518;28;20029;-80
2023/04/05 00:54:48;;;;;;;14.23;8.80;;;1.10;99.90;;;;;;5004062;28;20033;-79
2023/04/05 00:57:13;;;;;;;18.23;9.13;;;1.50;99.90;;;;;;5010059;28;20472;-80
2023/04/05 00:59:39;;;;;;;15.65;9.23;;;0.80;99.90;;;;;;4993669;28;20030;-79
2023/04/05 01:02:32;;;;;;;15.00;8.70;;;1.00;99.90;;;;;;5026164;28;20282;-79
2023/04/05 01:05:45;;;;;;;13.88;8.32;;;1.10;99.90;;;;;;5037193;28;20513;-80
2023/04/05 01:08:33;;;;;;;12.70;6.10;;;1.10;99.90;;;;;;5003188;28;20396;-79
2023/04/05 01:11:00;;;;;;;17.42;8.88;;;1.10;99.90;;;;;;5018368;28;20068;-80
2023/04/05 01:13:27;;;;;;;18.33;9.25;;;0.90;99.90;;;;;;5005398;28;20481;-80
2023/04/05 01:15:53;;;;;;;17.48;8.65;;;0.90;99.90;;;;;;5024457;28;20786;-79
2023/04/05 01:18:20;;;;;;;13.95;7.53;;;0.60;99.90;;;;;;5003705;28;24617;-79
2023/04/05 01:20:53;;;;;;;24.77;8.88;;;0.70;99.90;;;;;;5003188;28;20370;-80
2023/04/05 01:23:47;;;;;;;16.50;9.10;;;0.70;99.90;;;;;;5008973;28;20072;-80
2023/04/05 01:26:25;;;;;;;9.75;5.07;;;0.80;99.90;;;;;;5020523;28;20502;-79
2023/04/05 01:29:33;;;;;;;8.82;5.47;;;0.80;99.90;;;;;;5019031;28;20447;-79
2023/04/05 01:32:04;;;;;;;15.63;7.85;;;0.90;99.90;;;;;;5036775;28;20067;-80
2023/04/05 01:34:36;;;;;;;11.23;7.93;;;0.90;99.90;;;;;;5033926;28;20065;-79
2023/04/05 01:37:07;;;;;;;12.77;8.38;;;0.50;99.90;;;;;;5025055;28;20034;-80
2023/04/05 01:39:33;;;;;;;16.45;9.00;;;0.80;99.90;;;;;;5015016;28;20486;-79
2023/04/05 01:42:00;;;;;;;17.17;8.77;;;0.30;99.90;;;;;;5029782;28;20025;-79
2023/04/05 01:44:26;;;;;;;16.80;8.38;;;0.10;99.90;;;;;;5010445;28;20124;-79
2023/04/05 01:46:51;;;;;;;14.80;8.30;;;0.30;99.90;;;;;;5001491;28;20057;-79
2023/04/05 01:49:17;;;;;;;16.27;9.02;;;0.00;99.90;;;;;;5004616;28;20107;-78
2023/04/05 01:51:43;;;;;;;14.07;7.97;;;0.30;99.90;;;;;;5021754;28;20030;-79
2023/04/05 01:54:08;;;;;;;18.08;9.23;;;0.10;99.90;;;;;;5007228;28;20050;-78
2023/04/05 01:56:34;;;;;;;14.80;6.43;;;0.20;99.90;;;;;;4999399;28;20034;-79
2023/04/05 01:58:59;;;;;;;20.73;8.32;;;0.80;99.90;;;;;;4998237;28;20044;-79
2023/04/05 02:01:25;;;;;;;16.20;8.43;;;0.10;99.90;;;;;;5008612;28;20053;-79
2023/04/05 02:03:51;;;;;;;14.75;8.25;;;-0.10;99.90;;;;;;5001932;28;20496;-79
2023/04/05 02:06:16;;;;;;;15.05;8.27;;;-0.10;99.90;;;;;;5019958;28;20025;-79
2023/04/05 02:08:42;;;;;;;17.83;8.40;;;0.00;99.90;;;;;;5017792;28;20549;-79
2023/04/05 02:11:07;;;;;;;14.40;8.35;;;-0.40;99.90;;;;;;5014536;28;20174;-79
2023/04/05 02:13:33;;;;;;;18.33;9.05;;;0.00;99.90;;;;;;5003520;28;20113;-79
2023/04/05 02:15:58;;;;;;;15.85;8.45;;;-0.10;99.90;;;;;;5011578;28;20079;-79
2023/04/05 02:18:28;;;;;;;20.30;9.77;;;-0.10;99.90;;;;;;5009446;28;20057;-77
2023/04/05 02:21:00;;;;;;;18.15;9.32;;;0.30;99.90;;;;;;5003566;28;20701;-80
2023/04/05 02:23:29;;;;;;;16.50;9.10;;;-0.40;99.90;;;;;;4989750;28;20061;-80
2023/04/05 02:25:55;;;;;;;13.70;9.05;;;-0.40;99.90;;;;;;5027133;28;20390;-80
2023/04/05 02:28:20;;;;;;;15.20;9.15;;;-0.50;99.90;;;;;;4999628;28;20150;-80
2023/04/05 02:30:46;;;;;;;13.32;8.52;;;-0.60;99.90;;;;;;5030304;28;20104;-80
2023/04/05 02:33:12;;;;;;;20.20;9.38;;;-0.50;99.90;;;;;;5008386;28;20092;-80
2023/04/05 02:35:37;;;;;;;18.67;8.85;;;-0.60;99.90;;;;;;5002018;28;20486;-81
2023/04/05 02:38:03;;;;;;;17.23;8.90;;;-0.50;99.90;;;;;;5004697;28;20036;-80
2023/04/05 02:40:29;;;;;;;13.75;9.15;;;-0.70;99.90;;;;;;5014404;28;20088;-80
2023/04/05 02:42:55;;;;;;;18.45;8.93;;;-0.50;99.90;;;;;;5031493;28;20037;-80
2023/04/05 02:45:20;;;;;;;16.85;9.02;;;-0.60;99.90;;;;;;5022956;28;20036;-80
2023/04/05 02:47:46;;;;;;;19.33;10.05;;;-0.40;99.90;;;;;;5002246;28;20437;-80
2023/04/05 02:50:12;;;;;;;16.27;8.73;;;-0.40;99.90;;;;;;5000991;28;20037;-80
2023/04/05 02:52:38;;;;;;;18.55;8.25;;;-0.60;99.90;;;;;;5027883;28;20037;-80
2023/04/05 02:55:05;;;;;;;18.13;9.75;;;-0.70;99.90;;;;;;5014666;28;20773;-80
2023/04/05 02:57:31;;;;;;;22.45;11.02;;;-0.60;99.90;;;;;;5004587;28;20087;-79
2023/04/05 02:59:56;;;;;;;13.68;8.98;;;-0.40;99.90;;;;;;5004041;28;20045;-79
2023/04/05 03:02:22;;;;;;;16.70;9.38;;;-0.70;99.90;;;;;;5018931;28;20536;-80
2023/04/05 03:04:47;;;;;;;23.83;10.10;;;0.20;99.90;;;;;;5000829;28;20030;-79
2023/04/05 03:07:17;;;;;;;18.88;9.88;;;-0.60;99.90;;;;;;5003572;28;20036;-79
2023/04/05 03:09:45;;;;;;;18.38;10.00;;;-0.90;99.90;;;;;;5005700;28;20069;-80
2023/04/05 03:12:11;;;;;;;16.67;9.80;;;-0.70;99.90;;;;;;5005505;28;20037;-80
2023/04/05 03:14:37;;;;;;;21.40;9.10;;;-0.80;99.90;;;;;;5030595;28;20379;-79
2023/04/05 03:17:02;;;;;;;19.00;10.05;;;-0.70;99.90;;;;;;5005232;28;20026;-80
2023/04/05 03:19:28;;;;;;;18.83;10.48;;;-0.90;99.90;;;;;;5019909;28;20056;-80
2023/04/05 03:21:53;;;;;;;16.20;8.85;;;-0.90;99.90;;;;;;4998107;28;20128;-79
2023/04/05 03:24:20;;;;;;;20.17;9.60;;;-0.90;99.90;;;;;;5016987;28;20037;-80
2023/04/05 03:26:46;;;;;;;18.15;9.55;;;-1.00;99.90;;;;;;5016500;28;20363;-80
2023/04/05 03:29:11;;;;;;;17.10;10.13;;;-0.80;99.90;;;;;;5006255;28;20030;-80
2023/04/05 03:31:37;;;;;;;19.48;9.98;;;0.40;99.90;;;;;;5016382;28;20095;-80
2023/04/05 03:34:03;;;;;;;19.30;10.15;;;-1.00;99.90;;;;;;4993546;28;20037;-79
2023/04/05 03:36:29;;;;;;;20.23;10.30;;;-1.50;99.90;;;;;;5012232;28;20022;-80
2023/04/05 03:38:55;;;;;;;20.98;10.20;;;-0.90;99.90;;;;;;5016299;28;20064;-80
2023/04/05 03:41:21;;;;;;;23.25;9.98;;;-1.10;99.90;;;;;;4997489;28;20029;-80
2023/04/05 03:43:47;;;;;;;16.33;9.27;;;-1.20;99.90;;;;;;5019560;28;20033;-79
2023/04/05 03:46:13;;;;;;;20.40;10.23;;;-1.30;99.90;;;;;;5004064;28;20033;-80
2023/04/05 03:48:39;;;;;;;16.08;9.85;;;-1.40;99.90;;;;;;5013359;28;20022;-80
2023/04/05 03:51:05;;;;;;;18.00;9.48;;;-1.30;99.90;;;;;;5017014;28;20531;-81
2023/04/05 03:53:30;;;;;;;19.00;10.07;;;-1.10;99.90;;;;;;5017197;28;20117;-81
2023/04/05 03:55:56;;;;;;;15.27;9.35;;;-0.50;99.90;;;;;;5016517;28;20108;-80
2023/04/05 03:58:22;;;;;;;17.73;10.25;;;-1.10;99.90;;;;;;5000177;28;20119;-80
2023/04/05 04:00:47;;;;;;;15.95;9.27;;;-1.10;99.90;;;;;;5016407;28;20030;-80
2023/04/05 04:03:13;;;;;;;19.23;9.90;;;-1.30;99.90;;;;;;5004518;28;20045;-80
2023/04/05 04:05:39;;;;;;;17.92;9.02;;;-1.40;99.90;;;;;;5004300;28;20044;-80
2023/04/05 04:08:05;;;;;;;16.67;9.63;;;-1.30;99.90;;;;;;5004159;28;20033;-79
2023/04/05 04:10:30;;;;;;;17.48;10.23;;;-1.80;99.90;;;;;;5022364;28;20033;-80
2023/04/05 04:12:56;;;;;;;16.83;9.30;;;-1.40;99.90;;;;;;5017085;28;20087;-80
2023/04/05 04:15:22;;;;;;;19.42;9.60;;;-1.60;99.90;;;;;;5002909;28;20037;-80
2023/04/05 04:17:47;;;;;;;20.02;9.70;;;-1.50;99.90;;;;;;5003098;28;20096;-79
2023/04/05 04:20:13;;;;;;;20.13;8.98;;;-0.60;99.90;;;;;;5021059;28;20044;-79
2023/04/05 04:22:39;;;;;;;19.92;9.20;;;-1.60;99.90;;;;;;5003690;28;20056;-80
2023/04/05 04:25:09;;;;;;;19.52;10.90;;;-1.40;99.90;;;;;;5025291;28;20468;-80
2023/04/05 04:27:38;;;;;;;18.52;9.13;;;-1.20;99.90;;;;;;5009048;28;20473;-80
2023/04/05 04:30:09;;;;;;;16.58;8.77;;;-1.60;99.90;;;;;;5011715;28;20033;-80
2023/04/05 04:32:50;;;;;;;21.60;10.15;;;-1.40;99.90;;;;;;5019325;28;20033;-80
2023/04/05 04:35:17;;;;;;;21.08;10.18;;;-1.50;99.90;;;;;;5012293;28;20041;-79
2023/04/05 04:37:53;;;;;;;22.45;10.57;;;-0.80;99.90;;;;;;5023401;28;20026;-79
2023/04/05 04:40:20;;;;;;;22.13;10.57;;;-1.70;99.90;;;;;;5004034;28;20044;-81
2023/04/05 04:42:46;;;;;;;18.08;9.68;;;-1.70;99.90;;;;;;5005328;28;20034;-80
2023/04/05 04:45:20;;;;;;;19.48;9.85;;;-1.50;99.90;;;;;;5005736;28;20398;-79
2023/04/05 04:47:46;;;;;;;17.65;9.13;;;-1.40;99.90;;;;;;5007497;28;20489;-80
2023/04/05 04:50:12;;;;;;;16.45;9.55;;;-1.60;99.90;;;;;;5008413;28;20041;-80
2023/04/05 04:52:39;;;;;;;14.82;8.77;;;-1.50;99.90;;;;;;5014772;28;20026;-78
2023/04/05 04:55:07;;;;;;;17.50;9.27;;;-1.60;99.90;;;;;;5003810;28;20038;-79
2023/04/05 04:57:32;;;;;;;18.95;9.38;;;-1.70;99.90;;;;;;5020206;28;20057;-80
2023/04/05 04:59:58;;;;;;;16.08;9.75;;;-1.60;99.90;;;;;;5008899;28;20103;-80
2023/04/05 05:02:24;;;;;;;18.02;10.02;;;-1.80;99.90;;;;;;5008306;28;20383;-80
2023/04/05 05:04:50;;;;;;;17.33;9.75;;;-1.80;99.90;;;;;;5018858;28;20125;-79
2023/04/05 05:07:16;;;;;;;17.25;9.73;;;-2.00;99.90;;;;;;5005685;28;20121;-80
2023/04/05 05:09:42;;;;;;;19.90;9.55;;;-1.90;99.90;;;;;;5017113;28;20042;-80
2023/04/05 05:12:07;;;;;;;19.45;9.98;;;-1.60;99.90;;;;;;5003889;28;20346;-79
2023/04/05 05:14:33;;;;;;;16.95;9.25;;;-1.80;99.90;;;;;;5018559;28;20079;-78
2023/04/05 05:16:59;;;;;;;15.68;9.18;;;-1.80;99.90;;;;;;5007906;28;20115;-79
2023/04/05 05:19:25;;;;;;;20.63;10.30;;;-1.90;99.90;;;;;;5022509;28;20117;-79
2023/04/05 05:21:52;;;;;;;23.00;10.52;;;-1.90;99.90;;;;;;5000722;28;20109;-79
2023/04/05 05:24:18;;;;;;;21.40;10.70;;;-1.90;99.90;;;;;;5009230;28;20528;-79
2023/04/05 05:26:44;;;;;;;24.75;11.13;;;-1.80;99.90;;;;;;5002896;28;20057;-80
2023/04/05 05:29:09;;;;;;;21.00;10.63;;;-2.40;99.90;;;;;;5010138;28;20105;-80
2023/04/05 05:31:35;;;;;;;21.52;11.40;;;-2.00;99.90;;;;;;5019623;28;20060;-80
2023/04/05 05:34:01;;;;;;;21.52;11.00;;;-1.90;99.90;;;;;;4993023;28;20022;-80
2023/04/05 05:36:26;;;;;;;20.75;10.70;;;-1.70;99.90;;;;;;5001559;28;20497;-80
2023/04/05 05:38:53;;;;;;;22.48;10.75;;;-1.80;99.90;;;;;;4997979;28;20062;-78
2023/04/05 05:41:20;;;;;;;27.40;10.98;;;-1.70;99.90;;;;;;5007935;28;20080;-78
2023/04/05 05:43:46;;;;;;;23.02;10.55;;;-1.80;99.90;;;;;;5011487;28;20033;-78
2023/04/05 05:46:11;;;;;;;27.30;11.90;;;-1.60;99.90;;;;;;5021461;28;20030;-78
2023/04/05 05:48:37;;;;;;;22.23;12.10;;;-1.40;99.90;;;;;;5000191;28;20029;-79
2023/04/05 05:51:08;;;;;;;17.63;11.15;;;-1.40;99.90;;;;;;5003483;28;20030;-79
2023/04/05 05:53:35;;;;;;;24.05;12.00;;;-1.30;99.90;;;;;;5004061;28;20025;-79
2023/04/05 05:56:00;;;;;;;24.08;11.13;;;-1.40;99.90;;;;;;4993182;28;20041;-79
2023/04/05 05:58:26;;;;;;;26.30;11.88;;;-1.30;99.90;;;;;;5007496;28;20033;-79
2023/04/05 06:00:55;;;;;;;22.23;11.32;;;-1.30;99.90;;;;;;5000913;28;20152;-79
2023/04/05 06:03:24;;;;;;;19.58;10.82;;;-1.20;99.90;;;;;;5006196;28;20095;-80
2023/04/05 06:05:51;;;;;;;30.55;13.32;;;-1.10;99.90;;;;;;5024556;28;20038;-79
2023/04/05 06:08:17;;;;;;;28.70;12.52;;;-1.00;99.90;;;;;;5017197;28;20555;-79
2023/04/05 06:10:42;;;;;;;23.02;12.00;;;-0.80;99.90;;;;;;5030966;28;20041;-79
2023/04/05 06:13:08;;;;;;;25.10;12.63;;;-0.70;99.90;;;;;;5002197;28;20112;-79
2023/04/05 06:15:34;;;;;;;24.20;12.68;;;-0.60;99.90;;;;;;5018902;28;20057;-79
2023/04/05 06:18:00;;;;;;;24.15;13.10;;;-0.40;99.90;;;;;;5009553;28;20484;-79
2023/04/05 06:20:27;;;;;;;27.13;13.38;;;-0.40;99.90;;;;;;5005624;28;20058;-79
2023/04/05 06:22:53;;;;;;;28.05;13.90;;;-0.40;99.90;;;;;;5001280;28;20030;-78
2023/04/05 06:25:18;;;;;;;32.75;14.60;;;-0.60;99.90;;;;;;5020696;28;20033;-78
2023/04/05 06:27:44;;;;;;;29.08;15.07;;;-0.30;99.90;;;;;;5006956;28;20109;-79
2023/04/05 06:30:10;;;;;;;30.52;14.30;;;0.10;99.90;;;;;;5009976;28;20033;-78
2023/04/05 06:32:36;;;;;;;29.38;15.63;;;0.00;99.90;;;;;;5021560;28;20379;-78
2023/04/05 06:35:04;;;;;;;29.08;15.70;;;0.00;99.90;;;;;;5019690;28;20030;-79
2023/04/05 06:37:30;;;;;;;35.60;17.50;;;0.00;99.90;;;;;;5018727;28;20029;-78
2023/04/05 06:39:55;;;;;;;36.42;15.32;;;0.50;99.90;;;;;;5005287;28;20107;-78
2023/04/05 06:42:21;;;;;;;37.22;18.52;;;0.60;99.90;;;;;;5001908;28;20033;-80
2023/04/05 06:44:46;;;;;;;34.38;14.40;;;0.40;99.90;;;;;;5005276;28;20092;-80
2023/04/05 06:47:12;;;;;;;28.48;14.93;;;0.50;99.90;;;;;;5007528;28;20084;-81
2023/04/05 06:49:38;;;;;;;33.40;14.38;;;0.70;99.90;;;;;;5017157;28;20030;-80
2023/04/05 06:52:07;;;;;;;23.40;13.90;;;1.10;99.90;;;;;;5001444;28;20116;-80
2023/04/05 06:54:33;;;;;;;29.75;14.07;;;1.30;99.90;;;;;;5012135;28;20103;-79
2023/04/05 06:56:59;;;;;;;29.85;15.18;;;1.20;99.90;;;;;;4999262;28;20037;-78
2023/04/05 06:59:26;;;;;;;29.50;13.73;;;1.60;99.90;;;;;;5019247;28;20568;-79
2023/04/05 07:01:51;;;;;;;27.17;13.75;;;1.70;99.90;;;;;;5002174;28;20456;-79
2023/04/05 07:04:17;;;;;;;23.65;13.95;;;2.90;99.90;;;;;;5000240;28;20136;-79
2023/04/05 07:06:43;;;;;;;23.48;11.63;;;2.10;99.90;;;;;;5005844;28;20036;-79
2023/04/05 07:09:08;;;;;;;26.23;13.70;;;2.60;99.90;;;;;;4995915;28;20056;-80
2023/04/05 07:11:34;;;;;;;28.70;13.05;;;2.20;99.90;;;;;;5003484;28;20037;-79
2023/04/05 07:14:00;;;;;;;21.60;14.43;;;2.20;99.90;;;;;;5006899;28;20109;-79
2023/04/05 07:16:25;;;;;;;29.55;15.18;;;2.40;99.90;;;;;;5015004;28;20059;-80
2023/04/05 07:18:51;;;;;;;22.75;13.50;;;2.50;99.90;;;;;;5033311;28;20055;-79
2023/04/05 07:21:16;;;;;;;27.55;13.43;;;2.70;99.90;;;;;;5000635;28;20040;-79
2023/04/05 07:23:42;;;;;;;23.27;14.07;;;2.70;99.90;;;;;;5021496;28;20026;-79
2023/04/05 07:26:08;;;;;;;23.38;13.50;;;2.60;99.90;;;;;;5003962;28;20107;-79
2023/04/05 07:28:34;;;;;;;27.48;15.02;;;3.10;99.90;;;;;;5021853;28;20525;-79
2023/04/05 07:31:05;;;;;;;27.23;13.10;;;4.10;99.90;;;;;;5006158;28;20033;-79
2023/04/05 07:33:31;;;;;;;22.23;12.30;;;3.50;99.90;;;;;;5001208;28;20394;-79
2023/04/05 07:35:57;;;;;;;25.33;12.15;;;4.40;99.90;;;;;;5000136;28;20036;-79
2023/04/05 07:38:23;;;;;;;20.08;10.75;;;4.00;99.90;;;;;;5003048;28;20034;-80
2023/04/05 07:40:49;;;;;;;20.05;9.52;;;4.10;99.90;;;;;;5002993;28;20435;-79
2023/04/05 07:43:15;;;;;;;17.95;10.45;;;4.30;99.90;;;;;;5006785;28;20045;-79
2023/04/05 07:45:40;;;;;;;21.20;9.65;;;4.10;99.90;;;;;;5005955;28;20112;-79
2023/04/05 07:48:06;;;;;;;16.08;7.95;;;4.20;99.90;;;;;;4986851;28;20124;-79
2023/04/05 07:50:33;;;;;;;14.88;7.38;;;4.60;99.90;;;;;;5011847;28;20505;-79
2023/04/05 07:52:59;;;;;;;13.27;8.10;;;4.00;99.90;;;;;;5016163;28;20025;-78
2023/04/05 07:55:26;;;;;;;14.38;7.93;;;4.50;99.90;;;;;;5003816;28;20104;-79
2023/04/05 07:57:52;;;;;;;12.75;8.13;;;4.60;99.90;;;;;;5037131;28;20061;-78
2023/04/05 08:00:18;;;;;;;12.52;7.75;;;4.40;99.90;;;;;;5006983;28;20037;-78
2023/04/05 08:02:44;;;;;;;14.13;8.05;;;5.00;99.90;;;;;;5016220;28;20041;-79
2023/04/05 08:05:10;;;;;;;10.30;6.47;;;5.60;99.90;;;;;;5018470;28;20037;-78
2023/04/05 08:07:35;;;;;;;12.38;7.07;;;5.30;99.90;;;;;;5006681;28;20034;-79
2023/04/05 08:10:02;;;;;;;11.85;7.75;;;5.20;99.90;;;;;;4995707;28;20042;-79
2023/04/05 08:12:27;;;;;;;14.50;6.68;;;6.30;99.90;;;;;;4984298;28;20124;-78
2023/04/05 08:14:53;;;;;;;10.70;5.07;;;5.90;99.90;;;;;;5028472;28;20124;-78
2023/04/05 08:17:19;;;;;;;16.45;7.45;;;6.40;99.90;;;;;;5018974;28;20051;-78
2023/04/05 08:19:44;;;;;;;11.75;6.72;;;6.00;99.90;;;;;;5017662;28;20034;-78
2023/04/05 08:22:10;;;;;;;13.40;6.90;;;5.90;99.90;;;;;;5020414;28;20109;-78
2023/04/05 08:24:36;;;;;;;9.60;4.95;;;6.10;99.90;;;;;;5011879;28;20034;-79
2023/04/05 08:27:01;;;;;;;8.75;5.28;;;6.80;99.90;;;;;;5034292;28;20462;-78
2023/04/05 08:29:27;;;;;;;7.57;5.05;;;7.40;99.90;;;;;;5030778;28;20049;-79
2023/04/05 08:31:56;;;;;;;8.43;5.15;;;6.40;99.90;;;;;;5022214;28;20037;-78
2023/04/05 08:34:22;;;;;;;9.30;5.90;;;6.40;99.90;;;;;;5010552;28;20034;-78
2023/04/05 08:36:47;;;;;;;8.50;4.68;;;8.00;99.90;;;;;;4999948;28;20029;-78
2023/04/05 08:39:14;;;;;;;9.45;5.38;;;6.40;99.90;;;;;;5006470;28;20038;-78
2023/04/05 08:41:40;;;;;;;8.27;4.80;;;6.90;99.90;;;;;;5001634;28;20033;-78
2023/04/05 08:44:08;;;;;;;8.15;4.78;;;8.00;99.90;;;;;;5001209;28;20030;-78
2023/04/05 08:46:34;;;;;;;8.80;5.40;;;7.50;99.90;;;;;;5032749;28;20448;-78
2023/04/05 08:49:03;;;;;;;13.63;5.00;;;8.90;99.90;;;;;;4990453;28;20116;-78
2023/04/05 08:51:28;;;;;;;8.05;5.25;;;7.10;99.90;;;;;;4988406;28;20044;-78
2023/04/05 08:53:54;;;;;;;7.32;4.13;;;7.90;99.90;;;;;;5013500;28;20029;-78
2023/04/05 08:56:21;;;;;;;11.57;5.50;;;9.10;99.90;;;;;;4999356;28;20394;-78
2023/04/05 08:59:06;;;;;;;8.52;5.50;;;8.20;99.90;;;;;;5004535;28;20568;-79
2023/04/05 09:01:35;;;;;;;11.02;5.32;;;7.10;99.90;;;;;;4997098;28;20791;-78
2023/04/05 09:04:05;;;;;;;7.97;5.60;;;7.00;99.90;;;;;;5019868;28;20116;-78
2023/04/05 09:06:30;;;;;;;6.88;4.38;;;7.70;99.90;;;;;;5011702;28;20034;-78
2023/04/05 09:08:56;;;;;;;9.68;4.53;;;7.60;99.90;;;;;;5007955;28;20783;-79
2023/04/05 09:11:22;;;;;;;9.23;4.95;;;9.40;99.90;;;;;;5001958;28;20042;-78
2023/04/05 09:13:47;;;;;;;11.73;5.75;;;9.10;99.90;;;;;;5001724;28;20087;-77
2023/04/05 09:16:14;;;;;;;10.38;5.05;;;9.10;99.90;;;;;;4989821;28;20026;-78
2023/04/05 09:18:40;;;;;;;5.95;3.72;;;7.50;99.90;;;;;;5022765;28;20030;-79
2023/04/05 09:21:06;;;;;;;9.85;4.20;;;8.30;99.90;;;;;;5025446;28;20038;-77
2023/04/05 09:23:34;;;;;;;11.30;5.53;;;9.70;99.90;;;;;;5005300;28;20065;-77
2023/04/05 09:26:00;;;;;;;9.20;5.00;;;9.90;99.90;;;;;;5001127;28;20026;-77
2023/04/05 09:28:41;;;;;;;9.15;3.75;;;8.70;99.90;;;;;;5024423;28;20038;-77
2023/04/05 09:31:07;;;;;;;5.82;4.07;;;9.10;99.90;;;;;;5019927;28;20028;-77
2023/04/05 09:33:33;;;;;;;8.27;3.78;;;10.30;99.90;;;;;;5006420;28;20064;-77
2023/04/05 09:35:58;;;;;;;8.07;4.55;;;10.80;99.90;;;;;;5001671;28;20041;-78
2023/04/05 09:38:43;;;;;;;6.47;4.75;;;10.20;99.90;;;;;;5030372;28;20048;-77
2023/04/05 09:41:09;;;;;;;10.40;5.40;;;9.60;99.90;;;;;;5025081;28;20038;-78
2023/04/05 09:43:36;;;;;;;9.43;5.40;;;9.30;99.90;;;;;;5015983;28;20022;-77
2023/04/05 09:46:02;;;;;;;11.52;6.25;;;9.00;99.90;;;;;;4994014;28;20038;-77
2023/04/05 09:48:50;;;;;;;9.25;5.88;;;9.30;99.90;;;;;;5007504;28;20033;-77
2023/04/05 09:51:16;;;;;;;8.60;5.78;;;8.80;99.90;;;;;;4991994;28;20034;-77
2023/04/05 09:54:00;;;;;;;10.68;6.90;;;8.70;99.90;;;;;;5002581;28;20033;-77
2023/04/05 09:56:30;;;;;;;9.95;6.75;;;8.80;99.90;;;;;;5035204;28;20372;-80
2023/04/05 09:59:05;;;;;;;8.68;5.20;;;8.50;99.90;;;;;;5018737;28;20116;-83
2023/04/05 10:01:31;;;;;;;5.45;4.05;;;9.80;99.90;;;;;;5024148;28;20400;-80
2023/04/05 10:03:57;;;;;;;6.57;5.15;;;10.90;99.90;;;;;;5025509;28;20029;-80
2023/04/05 10:06:23;;;;;;;7.82;4.07;;;12.50;99.90;;;;;;5001916;28;20406;-81
2023/04/05 10:08:49;;;;;;;5.45;4.00;;;12.50;99.90;;;;;;5004181;28;20022;-80
2023/04/05 10:11:16;;;;;;;7.75;4.35;;;13.10;99.90;;;;;;5023659;28;20119;-79
2023/04/05 10:13:42;;;;;;;8.45;5.60;;;12.80;99.90;;;;;;5004753;28;20041;-80
2023/04/05 10:16:10;;;;;;;7.70;5.13;;;12.20;99.90;;;;;;5003057;28;20029;-80
2023/04/05 10:18:42;;;;;;;10.05;6.32;;;11.00;99.90;;;;;;5016038;28;20030;-80
2023/04/05 10:21:08;;;;;;;6.18;4.28;;;10.40;99.90;;;;;;4995537;28;20045;-80
2023/04/05 10:23:34;;;;;;;8.90;6.30;;;11.60;99.90;;;;;;5000007;28;20029;-81
2023/04/05 10:26:20;;;;;;;6.45;5.63;;;11.60;99.90;;;;;;4996542;28;20056;-80
2023/04/05 10:28:47;;;;;;;6.03;4.45;;;11.60;99.90;;;;;;5022353;28;20094;-80
2023/04/05 10:31:25;;;;;;;8.43;4.47;;;12.50;99.90;;;;;;5023188;28;20148;-81
2023/04/05 10:34:07;;;;;;;6.47;3.90;;;13.40;99.90;;;;;;5017738;28;20513;-80
2023/04/05 10:36:51;;;;;;;9.10;6.18;;;14.50;99.90;;;;;;5004548;28;20121;-81
2023/04/05 10:39:40;;;;;;;12.25;6.78;;;13.80;99.90;;;;;;5035420;28;20044;-80
2023/04/05 10:42:10;;;;;;;12.05;7.10;;;12.30;99.90;;;;;;5012132;28;20021;-81
2023/04/05 10:44:36;;;;;;;8.52;5.95;;;11.40;99.90;;;;;;5032843;28;20048;-81
2023/04/05 10:47:01;;;;;;;8.27;6.32;;;12.00;99.90;;;;;;5009384;28;20421;-81
2023/04/05 10:49:38;;;;;;;8.15;5.75;;;12.30;99.90;;;;;;5008331;28;20037;-81
2023/04/05 10:52:03;;;;;;;10.35;6.53;;;12.00;99.90;;;;;;5011624;28;20044;-82
2023/04/05 10:54:32;;;;;;;7.38;4.75;;;11.20;99.90;;;;;;5021192;28;20029;-81
2023/04/05 10:56:58;;;;;;;9.77;6.88;;;12.30;99.90;;;;;;5022609;28;20033;-81
2023/04/05 10:59:25;;;;;;;6.80;4.85;;;12.80;99.90;;;;;;5006930;28;20047;-82
2023/04/05 11:01:50;;;;;;;8.43;6.28;;;12.70;99.90;;;;;;5021598;28;20398;-82
2023/04/05 11:04:16;;;;;;;6.57;4.50;;;12.50;99.90;;;;;;4999584;28;20036;-84
2023/04/05 11:06:42;;;;;;;8.68;5.57;;;13.50;99.90;;;;;;4998531;28;20026;-82
2023/04/05 11:09:17;;;;;;;9.07;5.53;;;13.10;99.90;;;;;;5016951;28;20030;-81
2023/04/05 11:11:50;;;;;;;10.02;6.35;;;12.80;99.90;;;;;;4999247;28;20107;-82
2023/04/05 11:14:24;;;;;;;10.82;5.20;;;13.10;99.90;;;;;;5018460;28;20430;-83
2023/04/05 11:16:54;;;;;;;6.07;3.97;;;14.70;99.90;;;;;;5029668;28;20394;-80
2023/04/05 11:19:19;;;;;;;11.02;6.13;;;14.70;99.90;;;;;;5024088;28;20037;-80
2023/04/05 11:21:45;;;;;;;8.07;6.28;;;14.70;99.90;;;;;;5002489;28;20030;-80
2023/04/05 11:24:14;;;;;;;9.52;5.95;;;13.70;99.90;;;;;;5004423;28;20556;-80
2023/04/05 11:26:39;;;;;;;9.98;6.70;;;14.10;99.90;;;;;;5002397;28;20088;-80
2023/04/05 11:29:08;;;;;;;9.60;5.68;;;12.60;99.90;;;;;;5023295;28;20033;-80
2023/04/05 11:31:33;;;;;;;8.75;5.95;;;12.20;99.90;;;;;;5016922;28;20101;-80
2023/04/05 11:34:08;;;;;;;7.32;5.32;;;12.30;99.90;;;;;;5026486;28;20572;-80
2023/04/05 11:36:46;;;;;;;5.53;4.63;;;13.40;99.90;;;;;;5005785;28;20030;-81
2023/04/05 11:39:22;;;;;;;7.63;4.90;;;13.90;99.90;;;;;;4326014;28;10000253;-81
2023/04/05 11:42:04;;;;;;;;;;;14.50;99.90;;;;;;5034298;28;20504;-80
2023/04/05 11:44:39;;;;;;;6.45;3.95;;;15.60;99.90;;;;;;5018840;28;19920;-80
2023/04/05 11:47:05;;;;;;;5.45;3.47;;;16.50;99.40;;;;;;5032895;28;20734;-80
2023/04/05 11:49:31;;;;;;;7.30;4.47;;;17.50;96.60;;;;;;5023033;28;20034;-81
2023/04/05 11:51:57;;;;;;;7.53;5.00;;;17.50;93.80;;;;;;5020259;28;20092;-82
2023/04/05 11:54:31;;;;;;;8.27;6.15;;;18.20;93.00;;;;;;4993875;28;20049;-81
2023/04/05 11:56:57;;;;;;;6.03;4.07;;;16.60;97.00;;;;;;5006454;28;20061;-81
2023/04/05 11:59:35;;;;;;;8.05;5.60;;;15.40;99.90;;;;;;5016644;28;20083;-80
2023/04/05 12:02:02;;;;;;;11.48;7.57;;;15.50;99.90;;;;;;5003110;28;20026;-81
2023/04/05 12:04:28;;;;;;;10.23;6.03;;;13.20;99.60;;;;;;5002755;28;20414;-80
2023/04/05 12:07:09;;;;;;;9.15;5.93;;;13.60;99.90;;;;;;5002156;28;20029;-80
2023/04/05 12:09:35;;;;;;;9.35;6.40;;;12.90;99.90;;;;;;5029565;28;20049;-80
2023/04/05 12:12:01;;;;;;;9.13;6.95;;;13.00;99.90;;;;;;4996839;28;20116;-79
2023/04/05 12:14:26;;;;;;;6.72;3.90;;;12.60;99.90;;;;;;5003201;28;20557;-80
2023/04/05 12:16:52;;;;;;;6.32;4.55;;;13.00;99.90;;;;;;5004702;28;20745;-80
2023/04/05 12:19:18;;;;;;;9.30;4.18;;;14.80;99.90;;;;;;5031817;28;20429;-80
2023/04/05 12:21:43;;;;;;;8.40;5.80;;;15.00;99.90;;;;;;5001601;28;20026;-80
2023/04/05 12:24:09;;;;;;;7.68;5.45;;;14.40;99.80;;;;;;5027940;28;20041;-80
2023/04/05 12:26:34;;;;;;;8.32;6.07;;;14.20;99.90;;;;;;5001004;28;20172;-80
2023/04/05 12:29:02;;;;;;;8.48;6.13;;;14.80;99.90;;;;;;5006054;28;20064;-80
2023/04/05 12:31:37;;;;;;;9.15;6.10;;;15.10;99.90;;;;;;5007173;28;20165;-80
2023/04/05 12:34:02;;;;;;;7.47;5.03;;;14.00;99.90;;;;;;5021210;28;20040;-80
2023/04/05 12:36:30;;;;;;;6.38;4.03;;;17.20;94.30;;;;;;4996641;28;20252;-80
2023/04/05 12:38:55;;;;;;;8.93;6.93;;;16.80;95.50;;;;;;5004903;28;20386;-80
2023/04/05 12:41:30;;;;;;;4.65;3.80;;;14.90;99.90;;;;;;5001417;28;20036;-80
2023/04/05 12:44:04;;;;;;;6.95;5.13;;;14.90;99.90;;;;;;5017845;28;20455;-80
2023/04/05 12:46:39;;;;;;;3.70;3.15;;;17.00;97.10;;;;;;5020700;28;20122;-80